This is the latest recevied weather packets stored in our database for station/object SP3SWJ-13. If no packets are shown the sender has not sent any weather packets the latest 10 day(s).
| Time | Temp. | Humidity | Pressure | Rain* | Wind** | Luminosity | Snow |
|---|---|---|---|---|---|---|---|
| 1777388677 | 15° C | 23% | 1015.2 hPa | - | - | 285 W/m² | - |
| 1777388376 | 14.44° C | 23% | 1015.3 hPa | - | - | 299 W/m² | - |
| 1777388075 | 15° C | 21% | 1015.4 hPa | - | - | 313 W/m² | - |
| 1777387774 | 13.33° C | 24% | 1015.4 hPa | - | - | 326 W/m² | - |
| 1777387473 | 12.78° C | 24% | 1015.5 hPa | - | - | 337 W/m² | - |
| 1777387172 | 13.89° C | 24% | 1015.6 hPa | - | - | 348 W/m² | - |
| 1777386871 | 14.44° C | 22% | 1015.6 hPa | - | - | 360 W/m² | - |
| 1777386570 | 13.33° C | 24% | 1015.5 hPa | - | - | 371 W/m² | - |
| 1777386269 | 15° C | 23% | 1015.6 hPa | - | - | 386 W/m² | - |
| 1777385968 | 15° C | 23% | 1015.6 hPa | - | - | 400 W/m² | - |
| 1777385667 | 14.44° C | 23% | 1015.6 hPa | - | - | 415 W/m² | - |
| 1777385365 | 15° C | 23% | 1015.6 hPa | - | - | 428 W/m² | - |
| 1777385064 | 15° C | 23% | 1015.7 hPa | - | - | 440 W/m² | - |
| 1777384763 | 14.44° C | 24% | 1015.8 hPa | - | - | 453 W/m² | - |
| 1777384462 | 14.44° C | 24% | 1015.8 hPa | - | - | 469 W/m² | - |
| 1777384161 | 13.89° C | 24% | 1015.8 hPa | - | - | 482 W/m² | - |
| 1777383860 | 15° C | 22% | 1015.9 hPa | - | - | 493 W/m² | - |
| 1777383559 | 14.44° C | 24% | 1015.9 hPa | - | - | 499 W/m² | - |
| 1777383258 | 13.89° C | 24% | 1015.8 hPa | - | - | 506 W/m² | - |
| 1777382957 | 13.89° C | 24% | 1015.9 hPa | - | - | 512 W/m² | - |
| 1777382658 | 14.44° C | 24% | 1016 hPa | - | - | 521 W/m² | - |
| 1777382355 | 14.44° C | 24% | 1016 hPa | - | - | 530 W/m² | - |
| 1777382054 | 13.33° C | 26% | 1016.1 hPa | - | - | 539 W/m² | - |
| 1777381753 | 13.89° C | 24% | 1016 hPa | - | - | 548 W/m² | - |
| 1777381452 | 13.33° C | 25% | 1016.1 hPa | - | - | 558 W/m² | - |
* Rain since midnight (hover to see other rain measurements)
** Current wind speed in m/s (hover to see current wind gust speed)